Happy Camp, California
Current Conditions -  °F | °C
As of 5:30 AM on Thursday 23 Oct 2014 (Local Time) from KCEC Reporting Station
Moderate Rain Moderate Rain  
Wind Chill: 60°   Ceiling: 1400
Heat Index: 60°   Visibility: 2.5mi
Dew Point: 59°   Wind: 17mph
Humidity: 96%   Direction: 170°S
Pressure: 29.89"   Gusts: 22mph
Location:  41.79°N, 123.38°W
Report Text: KCEC 231230Z AUTO 17015G19KT 2 1/2SM RA BR SCT003 OVC014 16/15 A2989 RMK AO2 RAB23 P0001 T01560150
Loading
Personal Weather Stations






























Interactive Weather Map New forecast layout! Learn more

10-Day Weather Forecast

Advertisements
Track Severe Weather on mobile